createdAt,value
2022-11-01T00:00:28.162Z,21.90
2022-11-01T00:02:56.665Z,25.85
2022-11-01T00:05:28.259Z,21.65
2022-11-01T00:07:57.863Z,27.23
2022-11-01T00:10:35.322Z,27.60
2022-11-01T00:13:29.177Z,17.30
2022-11-01T00:16:07.564Z,24.38
2022-11-01T00:21:25.385Z,23.65
2022-11-01T00:26:51.535Z,23.77
2022-11-01T00:29:29.112Z,22.35
2022-11-01T00:32:19.087Z,23.95
2022-11-01T00:34:47.363Z,23.55
2022-11-01T00:37:20.691Z,19.27
2022-11-01T00:39:48.421Z,21.65
2022-11-01T00:42:18.275Z,18.40
2022-11-01T00:44:48.405Z,28.23
2022-11-01T00:47:15.600Z,21.58
2022-11-01T00:49:42.989Z,21.90
2022-11-01T00:52:11.275Z,24.00
2022-11-01T00:54:39.074Z,26.27
2022-11-01T00:57:06.738Z,23.30
2022-11-01T01:00:03.553Z,22.98
2022-11-01T01:02:35.733Z,20.40
2022-11-01T01:05:06.967Z,29.67
2022-11-01T01:07:40.906Z,22.55
2022-11-01T01:10:08.893Z,32.85
2022-11-01T01:12:36.363Z,24.50
2022-11-01T01:15:04.642Z,19.40
2022-11-01T01:17:35.482Z,26.70
2022-11-01T01:20:07.534Z,20.10
2022-11-01T01:22:38.034Z,22.63
2022-11-01T01:25:06.056Z,24.98
2022-11-01T01:27:36.213Z,24.00
2022-11-01T01:30:15.701Z,27.83
2022-11-01T01:32:43.611Z,22.42
2022-11-01T01:35:11.199Z,28.40
2022-11-01T01:37:38.582Z,29.77
2022-11-01T01:40:07.143Z,23.25
2022-11-01T01:42:40.667Z,26.92
2022-11-01T01:45:16.008Z,28.65
2022-11-01T01:47:50.600Z,27.83
2022-11-01T01:50:20.820Z,32.25
2022-11-01T01:53:09.112Z,25.67
2022-11-01T01:55:49.339Z,25.83
2022-11-01T01:58:20.057Z,25.55
2022-11-01T02:00:47.471Z,22.02
2022-11-01T02:03:23.240Z,24.20
2022-11-01T02:06:18.734Z,28.17
2022-11-01T02:09:00.740Z,19.45
2022-11-01T02:11:28.185Z,22.55
2022-11-01T02:13:56.518Z,22.27
2022-11-01T02:16:36.880Z,29.40
2022-11-01T02:20:00.905Z,29.02
2022-11-01T02:22:46.718Z,25.65
2022-11-01T02:25:42.655Z,27.90
2022-11-01T02:28:51.062Z,33.50
2022-11-01T02:31:32.790Z,22.27
2022-11-01T02:34:32.578Z,31.58
2022-11-01T02:37:13.222Z,25.73
2022-11-01T02:39:51.930Z,28.60
2022-11-01T02:42:32.339Z,21.48
2022-11-01T02:45:11.285Z,27.77
2022-11-01T02:47:41.381Z,24.58
2022-11-01T02:50:14.198Z,22.88
2022-11-01T02:52:48.302Z,29.40
2022-11-01T02:55:32.436Z,27.00
2022-11-01T02:58:16.158Z,24.75
2022-11-01T03:00:44.756Z,29.30
2022-11-01T03:03:31.916Z,28.08
2022-11-01T03:06:12.857Z,28.83
2022-11-01T03:09:15.905Z,26.83
2022-11-01T03:12:04.304Z,31.73
2022-11-01T03:14:46.549Z,28.85
2022-11-01T03:17:53.867Z,32.95
2022-11-01T03:20:29.979Z,28.48
2022-11-01T03:23:03.721Z,25.38
2022-11-01T03:25:42.536Z,32.22
2022-11-01T03:28:44.632Z,25.10
2022-11-01T03:31:25.180Z,27.77
2022-11-01T03:34:27.018Z,29.40
2022-11-01T03:37:07.467Z,26.27
2022-11-01T03:39:41.805Z,33.63
2022-11-01T03:42:15.297Z,32.13
2022-11-01T03:44:50.130Z,30.05
2022-11-01T03:47:23.572Z,35.60
2022-11-01T03:50:19.358Z,23.23
2022-11-01T03:52:56.031Z,25.33
2022-11-01T03:55:23.948Z,24.83
2022-11-01T03:57:57.151Z,26.90
2022-11-01T04:00:29.043Z,30.58
2022-11-01T04:03:01.817Z,28.80
2022-11-01T04:05:31.506Z,23.90
2022-11-01T04:07:59.335Z,18.90
2022-11-01T04:10:31.546Z,21.65
2022-11-01T04:13:07.618Z,19.63
2022-11-01T04:15:56.570Z,25.38
2022-11-01T04:18:45.151Z,22.98
2022-11-01T04:21:40.154Z,25.48
2022-11-01T04:24:11.299Z,27.35
2022-11-01T04:26:42.757Z,21.50
2022-11-01T04:29:12.404Z,28.30
2022-11-01T04:31:42.423Z,25.73
2022-11-01T04:34:33.134Z,22.10
2022-11-01T04:37:03.863Z,27.27
2022-11-01T04:39:31.089Z,22.52
2022-11-01T04:41:58.430Z,43.83
2022-11-01T04:44:28.668Z,27.55
2022-11-01T04:46:56.899Z,27.02
2022-11-01T04:49:47.386Z,27.58
2022-11-01T04:52:14.925Z,24.02
2022-11-01T04:54:42.459Z,20.15
2022-11-01T04:57:23.502Z,28.70
2022-11-01T04:59:58.363Z,20.73
2022-11-01T05:02:25.815Z,26.38
2022-11-01T05:04:53.146Z,21.75
2022-11-01T05:07:20.658Z,25.52
2022-11-01T05:09:47.808Z,21.08
2022-11-01T05:12:15.420Z,20.63
2022-11-01T05:14:45.110Z,17.67
2022-11-01T05:17:12.345Z,17.85
2022-11-01T05:19:39.596Z,20.92
2022-11-01T05:22:08.304Z,22.35
2022-11-01T05:24:35.694Z,15.60
2022-11-01T05:27:04.722Z,24.48
2022-11-01T05:29:33.271Z,21.08
2022-11-01T05:32:01.369Z,19.85
2022-11-01T05:34:28.868Z,18.95
2022-11-01T05:36:59.782Z,19.63
2022-11-01T05:39:29.706Z,23.48
2022-11-01T05:42:00.008Z,21.25
2022-11-01T05:44:33.705Z,23.08
2022-11-01T05:47:05.927Z,26.90
2022-11-01T05:49:33.344Z,23.70
2022-11-01T05:52:04.160Z,19.45
2022-11-01T05:54:34.457Z,19.33
2022-11-01T05:57:08.350Z,23.60
2022-11-01T05:59:43.817Z,24.48
2022-11-01T06:02:12.551Z,25.08
2022-11-01T06:04:45.512Z,24.92
2022-11-01T06:07:17.292Z,17.25
2022-11-01T06:09:50.639Z,23.88
2022-11-01T06:12:20.459Z,23.67
2022-11-01T06:14:56.116Z,20.27
2022-11-01T06:17:28.812Z,16.08
2022-11-01T06:20:00.351Z,22.27
2022-11-01T06:22:27.916Z,22.40
2022-11-01T06:24:56.337Z,22.25
2022-11-01T06:27:36.224Z,20.50
2022-11-01T06:30:06.375Z,16.98
2022-11-01T06:32:34.220Z,20.10
2022-11-01T06:35:06.075Z,23.20
2022-11-01T06:37:34.205Z,24.20
2022-11-01T06:40:01.502Z,27.30
2022-11-01T06:42:28.998Z,23.17
2022-11-01T06:44:57.340Z,16.75
2022-11-01T06:47:28.573Z,19.55
2022-11-01T06:49:58.515Z,21.67
2022-11-01T06:52:26.240Z,21.77
2022-11-01T06:54:53.693Z,18.13
2022-11-01T06:57:21.236Z,20.42
2022-11-01T06:59:51.381Z,20.63
2022-11-01T07:02:29.664Z,20.88
2022-11-01T07:05:00.681Z,17.50
2022-11-01T07:07:28.440Z,17.05
2022-11-01T07:09:58.214Z,21.63
2022-11-01T07:12:25.407Z,29.75
2022-11-01T07:14:52.676Z,23.23
2022-11-01T07:17:20.301Z,24.90
2022-11-01T07:19:47.452Z,15.70
2022-11-01T07:22:15.182Z,19.42
2022-11-01T07:24:42.527Z,14.52
2022-11-01T07:27:16.425Z,17.27
2022-11-01T07:29:46.808Z,30.58
2022-11-01T07:32:13.905Z,21.15
2022-11-01T07:34:44.342Z,15.77
2022-11-01T07:37:14.765Z,17.05
2022-11-01T07:39:42.400Z,16.50
2022-11-01T07:42:10.740Z,18.95
2022-11-01T07:44:38.289Z,23.38
2022-11-01T07:47:05.539Z,20.73
2022-11-01T07:49:32.711Z,16.38
2022-11-01T07:52:02.838Z,20.45
2022-11-01T07:54:33.960Z,14.77
2022-11-01T07:57:06.486Z,19.08
2022-11-01T07:59:33.900Z,20.33
2022-11-01T08:02:05.307Z,14.30
2022-11-01T08:04:35.702Z,17.58
2022-11-01T08:07:03.088Z,20.85
2022-11-01T08:09:31.109Z,18.27
2022-11-01T08:11:59.801Z,27.02
2022-11-01T08:14:27.388Z,20.67
2022-11-01T08:17:00.935Z,17.48
2022-11-01T08:19:28.640Z,15.82
2022-11-01T08:22:00.059Z,12.05
2022-11-01T08:24:28.004Z,21.20
2022-11-01T08:26:55.218Z,19.02
2022-11-01T08:29:23.333Z,12.07
2022-11-01T08:31:50.735Z,23.02
2022-11-01T08:34:20.330Z,20.25
2022-11-01T08:36:47.882Z,18.27
2022-11-01T08:39:15.143Z,20.60
2022-11-01T08:41:42.512Z,12.82
2022-11-01T08:44:13.426Z,19.80
2022-11-01T08:46:43.250Z,15.27
2022-11-01T08:49:11.621Z,12.55
2022-11-01T08:51:38.754Z,17.13
2022-11-01T08:54:08.227Z,15.35
2022-11-01T08:56:35.610Z,13.57
2022-11-01T08:59:05.051Z,15.20
2022-11-01T09:01:38.495Z,16.30
2022-11-01T09:04:06.621Z,14.50
2022-11-01T09:06:36.378Z,39.10
2022-11-01T09:09:05.251Z,21.33
2022-11-01T09:11:32.870Z,15.43
2022-11-01T09:14:04.256Z,11.15
2022-11-01T09:16:33.799Z,14.30
2022-11-01T09:19:18.743Z,19.15
2022-11-01T09:21:47.268Z,21.70
2022-11-01T09:24:16.228Z,17.10
2022-11-01T09:26:44.197Z,15.32
2022-11-01T09:29:12.190Z,14.20
2022-11-01T09:31:39.476Z,15.63
2022-11-01T09:34:06.645Z,22.70
2022-11-01T09:36:37.014Z,13.95
2022-11-01T09:39:04.473Z,18.15
2022-11-01T09:41:36.755Z,11.55
2022-11-01T09:44:08.462Z,12.88
2022-11-01T09:46:59.751Z,16.35
2022-11-01T09:52:00.368Z,41.33
2022-11-01T09:54:32.363Z,13.48
2022-11-01T09:57:22.150Z,27.95
2022-11-01T09:59:59.748Z,18.33
2022-11-01T10:02:51.019Z,19.63
2022-11-01T10:05:42.415Z,21.27
2022-11-01T10:08:51.914Z,20.25
2022-11-01T10:11:53.517Z,11.63
2022-11-01T10:14:37.522Z,16.85
2022-11-01T10:17:22.751Z,11.07
2022-11-01T10:19:57.445Z,15.40
2022-11-01T10:22:41.209Z,16.30
2022-11-01T10:25:47.709Z,14.88
2022-11-01T10:28:52.265Z,13.52
2022-11-01T10:31:31.667Z,10.07
2022-11-01T10:34:19.473Z,17.10
2022-11-01T10:36:51.316Z,19.90
2022-11-01T10:39:56.768Z,9.10
2022-11-01T10:42:28.981Z,14.57
2022-11-01T10:45:01.328Z,9.20
2022-11-01T10:47:29.496Z,15.55
2022-11-01T10:50:07.054Z,15.63
2022-11-01T10:52:53.062Z,11.95
2022-11-01T10:55:39.237Z,19.92
2022-11-01T10:58:34.799Z,15.85
2022-11-01T11:01:04.847Z,7.43
2022-11-01T11:03:32.973Z,13.95
2022-11-01T11:06:06.161Z,8.98
2022-11-01T11:08:37.793Z,14.25
2022-11-01T11:11:15.073Z,13.65
2022-11-01T11:13:47.288Z,14.82
2022-11-01T11:16:30.738Z,10.70
2022-11-01T11:19:02.381Z,16.80
2022-11-01T11:21:34.776Z,8.85
2022-11-01T11:24:03.716Z,7.80
2022-11-01T11:29:40.213Z,5.40
2022-11-01T11:32:32.393Z,5.28
2022-11-01T11:35:04.290Z,10.57
2022-11-01T11:37:38.441Z,6.30
2022-11-01T11:40:20.090Z,6.80
2022-11-01T11:42:49.579Z,7.90
2022-11-01T11:45:23.590Z,12.63
2022-11-01T11:47:51.256Z,6.07
2022-11-01T11:50:26.093Z,16.17
2022-11-01T11:53:03.718Z,10.18
2022-11-01T11:55:42.417Z,10.25
2022-11-01T11:58:34.349Z,6.47
2022-11-01T12:01:07.653Z,6.88
2022-11-01T12:03:45.440Z,10.93
2022-11-01T12:06:31.252Z,8.55
2022-11-01T12:09:00.937Z,8.18
2022-11-01T12:11:46.271Z,6.45
2022-11-01T12:14:26.963Z,11.73
2022-11-01T12:16:54.658Z,4.28
2022-11-01T12:19:32.590Z,11.20
2022-11-01T12:22:13.857Z,7.40
2022-11-01T12:24:54.464Z,12.15
2022-11-01T12:27:26.224Z,11.00
2022-11-01T12:30:06.270Z,8.73
2022-11-01T12:32:47.932Z,8.27
2022-11-01T12:35:22.997Z,7.90
2022-11-01T12:38:10.578Z,18.88
2022-11-01T12:40:47.208Z,11.18
2022-11-01T12:43:32.907Z,12.07
2022-11-01T12:46:19.193Z,9.73
2022-11-01T12:48:57.477Z,9.68
2022-11-01T12:51:32.464Z,9.40
2022-11-01T12:54:10.676Z,13.38
2022-11-01T12:56:37.863Z,12.02
2022-11-01T12:59:06.189Z,7.32
2022-11-01T13:01:56.935Z,6.90
2022-11-01T13:04:31.573Z,8.55
2022-11-01T13:07:21.069Z,3.83
2022-11-01T13:09:55.123Z,6.18
2022-11-01T13:12:53.527Z,7.22
2022-11-01T13:16:01.779Z,6.25
2022-11-01T13:18:44.413Z,6.07
2022-11-01T13:21:20.785Z,9.70
2022-11-01T13:24:14.985Z,6.50
2022-11-01T13:26:50.767Z,6.65
2022-11-01T13:29:36.186Z,12.32
2022-11-01T13:32:28.432Z,8.32
2022-11-01T13:35:32.207Z,10.63
2022-11-01T13:38:06.284Z,6.07
2022-11-01T13:40:43.007Z,6.63
2022-11-01T13:43:16.405Z,7.07
2022-11-01T13:46:19.242Z,7.43
2022-11-01T13:49:05.173Z,6.82
2022-11-01T13:52:01.742Z,5.30
2022-11-01T13:54:34.913Z,7.75
2022-11-01T13:57:12.609Z,6.38
2022-11-01T13:59:46.094Z,3.30
2022-11-01T14:02:31.283Z,5.40
2022-11-01T14:05:08.954Z,6.45
2022-11-01T14:07:45.666Z,4.65
2022-11-01T14:10:22.383Z,12.23
2022-11-01T14:13:12.099Z,8.25
2022-11-01T14:15:54.322Z,13.25
2022-11-01T14:18:22.724Z,8.57
2022-11-01T14:20:55.059Z,2.40
2022-11-01T14:23:28.353Z,9.32
2022-11-01T14:26:22.687Z,5.28
2022-11-01T14:28:52.566Z,13.27
2022-11-01T14:31:24.096Z,5.72
2022-11-01T14:33:56.151Z,5.05
2022-11-01T14:36:31.931Z,7.10
2022-11-01T14:39:21.329Z,6.85
2022-11-01T14:41:56.010Z,10.35
2022-11-01T14:44:34.205Z,7.72
2022-11-01T14:47:18.509Z,8.65
2022-11-01T14:49:46.427Z,19.90
2022-11-01T14:52:13.679Z,4.95
2022-11-01T14:54:48.967Z,8.50
2022-11-01T14:57:35.732Z,8.77
2022-11-01T15:00:31.173Z,8.07
2022-11-01T15:03:01.311Z,9.90
2022-11-01T15:05:29.190Z,8.10
2022-11-01T15:08:03.797Z,10.82
2022-11-01T15:10:41.701Z,5.78
2022-11-01T15:13:15.744Z,8.55
2022-11-01T15:15:43.461Z,10.38
2022-11-01T15:18:19.078Z,8.32
2022-11-01T15:20:52.039Z,4.78
2022-11-01T15:23:24.960Z,9.05
2022-11-01T15:25:56.733Z,5.68
2022-11-01T15:28:33.997Z,5.63
2022-11-01T15:31:06.820Z,4.68
2022-11-01T15:33:35.401Z,11.48
2022-11-01T15:36:11.668Z,11.85
2022-11-01T15:38:56.574Z,4.95
2022-11-01T15:41:32.195Z,7.30
2022-11-01T15:44:03.745Z,6.90
2022-11-01T15:46:34.018Z,10.70
2022-11-01T15:49:07.323Z,5.30
2022-11-01T15:51:40.958Z,8.55
2022-11-01T15:54:44.684Z,8.43
2022-11-01T15:57:20.128Z,6.03
2022-11-01T16:00:10.231Z,4.15
2022-11-01T16:03:01.227Z,3.80
2022-11-01T16:05:35.568Z,9.80
2022-11-01T16:08:07.353Z,7.55
2022-11-01T16:10:35.831Z,7.43
2022-11-01T16:13:04.348Z,10.02
2022-11-01T16:15:34.084Z,8.23
2022-11-01T16:18:14.343Z,6.60
2022-11-01T16:20:43.238Z,9.45
2022-11-01T16:23:35.000Z,4.18
2022-11-01T16:26:08.052Z,7.05
2022-11-01T16:28:43.372Z,10.27
2022-11-01T16:31:23.926Z,6.45
2022-11-01T16:33:54.602Z,11.55
2022-11-01T16:36:44.329Z,14.23
2022-11-01T16:39:43.173Z,7.88
2022-11-01T16:42:16.369Z,7.35
2022-11-01T16:44:45.207Z,11.77
2022-11-01T16:47:21.674Z,8.98
2022-11-01T16:49:59.634Z,7.47
2022-11-01T16:52:32.944Z,16.23
2022-11-01T16:55:01.853Z,6.35
2022-11-01T16:57:33.310Z,11.07
2022-11-01T17:00:15.068Z,8.80
2022-11-01T17:02:54.648Z,13.55
2022-11-01T17:05:23.907Z,15.43
2022-11-01T17:07:54.012Z,13.43
2022-11-01T17:10:33.768Z,10.05
2022-11-01T17:13:06.424Z,12.77
2022-11-01T17:15:54.110Z,14.07
2022-11-01T17:18:48.448Z,8.52
2022-11-01T17:23:47.104Z,12.15
2022-11-01T17:26:20.101Z,9.50
2022-11-01T17:28:56.528Z,10.05
2022-11-01T17:31:39.975Z,9.90
2022-11-01T17:34:10.400Z,12.48
2022-11-01T17:36:50.288Z,10.68
2022-11-01T17:39:20.840Z,9.98
2022-11-01T17:41:51.772Z,10.73
2022-11-01T17:44:24.546Z,10.13
2022-11-01T17:47:03.980Z,7.70
2022-11-01T17:49:36.562Z,7.68
2022-11-01T17:52:12.614Z,26.08
2022-11-01T17:54:54.658Z,8.80
2022-11-01T17:57:45.228Z,10.45
2022-11-01T18:00:35.078Z,13.55
2022-11-01T18:03:08.625Z,7.05
2022-11-01T18:05:44.916Z,12.15
2022-11-01T18:08:24.008Z,13.90
2022-11-01T18:11:24.957Z,12.30
2022-11-01T18:14:11.580Z,7.80
2022-11-01T18:16:55.526Z,10.50
2022-11-01T18:20:09.765Z,14.82
2022-11-01T18:23:02.147Z,14.55
2022-11-01T18:25:52.907Z,16.02
2022-11-01T18:28:40.557Z,11.73
2022-11-01T18:31:24.312Z,7.22
2022-11-01T18:34:29.876Z,15.52
2022-11-01T18:37:33.520Z,9.50
2022-11-01T18:40:15.855Z,10.18
2022-11-01T18:42:52.703Z,10.38
2022-11-01T18:45:33.199Z,12.07
2022-11-01T18:48:23.195Z,8.30
2022-11-01T18:51:09.358Z,7.63
2022-11-01T18:53:45.960Z,5.55
2022-11-01T18:56:30.596Z,9.23
2022-11-01T18:59:03.567Z,7.68
2022-11-01T19:01:32.135Z,14.25
2022-11-01T19:04:25.566Z,10.98
2022-11-01T19:07:18.571Z,7.43
2022-11-01T19:10:14.815Z,12.52
2022-11-01T19:12:44.328Z,12.75
2022-11-01T19:15:20.826Z,7.00
2022-11-01T19:18:00.282Z,8.98
2022-11-01T19:20:33.431Z,9.77
2022-11-01T19:23:13.459Z,6.60
2022-11-01T19:25:51.470Z,9.68
2022-11-01T19:28:30.907Z,8.10
2022-11-01T19:31:11.387Z,6.32
2022-11-01T19:33:47.125Z,6.22
2022-11-01T19:36:21.943Z,15.70
2022-11-01T19:38:50.133Z,7.40
2022-11-01T19:41:35.691Z,12.35
2022-11-01T19:44:15.660Z,13.43
2022-11-01T19:46:45.848Z,13.38
2022-11-01T19:49:27.768Z,10.40
2022-11-01T19:52:13.695Z,12.32
2022-11-01T19:54:46.237Z,12.48
2022-11-01T19:57:45.313Z,10.73
2022-11-01T20:00:30.330Z,5.53
2022-11-01T20:03:22.661Z,6.20
2022-11-01T20:05:57.667Z,7.55
2022-11-01T20:08:35.524Z,5.50
2022-11-01T20:11:03.449Z,5.05
2022-11-01T20:13:30.797Z,6.88
2022-11-01T20:15:58.022Z,11.23
2022-11-01T20:18:31.601Z,9.88
2022-11-01T20:20:58.919Z,11.48
2022-11-01T20:23:29.143Z,12.90
2022-11-01T20:25:56.966Z,18.15
2022-11-01T20:28:24.816Z,17.08
2022-11-01T20:30:52.600Z,14.18
2022-11-01T20:33:25.999Z,15.35
2022-11-01T20:38:21.489Z,18.10
2022-11-01T20:40:48.875Z,15.43
2022-11-01T20:43:16.395Z,12.75
2022-11-01T20:45:47.146Z,12.88
2022-11-01T20:48:21.672Z,15.63
2022-11-01T20:50:49.376Z,10.85
2022-11-01T20:53:19.185Z,12.60
2022-11-01T20:55:46.738Z,12.32
2022-11-01T20:58:16.322Z,16.50
2022-11-01T21:00:52.116Z,18.98
2022-11-01T21:03:28.017Z,10.63
2022-11-01T21:06:20.086Z,9.40
2022-11-01T21:08:56.853Z,13.15
2022-11-01T21:11:55.865Z,21.10
2022-11-01T21:14:47.317Z,14.95
2022-11-01T21:17:32.967Z,18.52
2022-11-01T21:20:32.245Z,10.30
2022-11-01T21:23:32.183Z,12.85
2022-11-01T21:26:44.983Z,17.60
2022-11-01T21:29:48.705Z,16.33
2022-11-01T21:32:57.528Z,15.98
2022-11-01T21:45:56.486Z,18.17
2022-11-01T21:48:54.034Z,9.95
2022-11-01T21:54:55.281Z,10.40
2022-11-01T21:57:33.130Z,14.95
2022-11-01T22:03:07.785Z,11.95
2022-11-01T22:05:36.969Z,14.68
2022-11-01T22:08:07.008Z,16.60
2022-11-01T22:10:44.898Z,17.17
2022-11-01T22:13:15.685Z,14.00
2022-11-01T22:15:43.726Z,11.30
2022-11-01T22:18:25.991Z,11.25
2022-11-01T22:20:53.856Z,15.88
2022-11-01T22:23:23.594Z,21.48
2022-11-01T22:25:52.367Z,12.63
2022-11-01T22:28:25.741Z,18.23
2022-11-01T22:31:01.289Z,14.88
2022-11-01T22:33:29.882Z,14.73
2022-11-01T22:35:59.995Z,15.40
2022-11-01T22:38:44.446Z,14.02
2022-11-01T22:41:32.987Z,16.27
2022-11-01T22:44:17.238Z,13.52
2022-11-01T22:47:02.280Z,18.40
2022-11-01T22:49:47.750Z,13.75
2022-11-01T22:52:25.244Z,16.55
2022-11-01T22:55:06.214Z,12.93
2022-11-01T22:57:37.120Z,10.82
2022-11-01T23:00:32.033Z,20.50
2022-11-01T23:03:26.228Z,15.30
2022-11-01T23:06:03.385Z,15.13
2022-11-01T23:09:01.108Z,13.10
2022-11-01T23:11:54.526Z,37.03
2022-11-01T23:14:42.453Z,10.90
2022-11-01T23:17:21.943Z,13.13
2022-11-01T23:19:53.558Z,11.02
2022-11-01T23:22:27.360Z,12.90
2022-11-01T23:24:55.284Z,24.63
2022-11-01T23:27:29.446Z,19.52
2022-11-01T23:30:01.256Z,13.10
2022-11-01T23:32:31.594Z,14.02
2022-11-01T23:35:10.561Z,20.20
2022-11-01T23:37:40.587Z,11.65
2022-11-01T23:40:22.852Z,13.45
2022-11-01T23:42:55.161Z,10.52
2022-11-01T23:45:36.832Z,14.65
2022-11-01T23:48:07.758Z,7.28
2022-11-01T23:50:38.317Z,20.75
2022-11-01T23:53:17.426Z,17.55
2022-11-01T23:55:56.266Z,15.50
2022-11-01T23:58:37.863Z,10.13
